Time;durP1;ratioP1;P1;durP2;ratioP2;P2;SDS_P1;SDS_P2;PMS_P1;PMS_P2;Temp;Humidity;BMP_temperature;BMP_pressure;BME280_temperature;BME280_humidity;BME280_pressure;Samples;Min_cycle;Max_cycle;Signal;HPM_P1;HPM_P2
2023/08/14 00:00:45;;;;;;;7.13;5.90;;;;;;;19.69;100.00;98475.13;2601933;28;20113;-84
2023/08/14 00:02:22;;;;;;;10.48;5.85;;;;;;;19.60;100.00;98465.94;2601975;28;20089;-84
2023/08/14 00:03:37;;;;;;;7.15;5.68;;;;;;;19.62;100.00;98469.34;2602120;28;20041;-84
2023/08/14 00:04:53;;;;;;;7.10;5.70;;;;;;;19.86;100.00;98466.06;2602095;28;20050;-84
2023/08/14 00:06:08;;;;;;;8.05;6.03;;;;;;;19.90;100.00;98470.19;2602257;28;20045;-84
2023/08/14 00:07:24;;;;;;;10.68;5.93;;;;;;;19.75;100.00;98468.56;2602097;28;20508;-84
2023/08/14 00:08:40;;;;;;;9.38;5.40;;;;;;;19.79;100.00;98475.38;2602054;28;20541;-84
2023/08/14 00:09:55;;;;;;;8.63;6.10;;;;;;;20.01;100.00;98474.81;2602122;28;20045;-84
2023/08/14 00:11:11;;;;;;;7.95;5.85;;;;;;;20.00;100.00;98467.81;2602200;28;20045;-84
2023/08/14 00:12:26;;;;;;;6.75;5.47;;;;;;;19.92;100.00;98474.56;2602061;28;20111;-84
2023/08/14 00:13:52;;;;;;;7.60;5.72;;;;;;;19.88;100.00;98477.41;2602227;28;20106;-84
2023/08/14 00:15:08;;;;;;;8.52;6.00;;;;;;;20.01;100.00;98474.81;2602015;28;20080;-84
2023/08/14 00:16:24;;;;;;;7.07;5.63;;;;;;;20.01;100.00;98477.47;2602136;28;20049;-84
2023/08/14 00:17:40;;;;;;;6.78;6.00;;;;;;;20.09;100.00;98471.66;2602238;28;20068;-84
2023/08/14 00:18:55;;;;;;;7.25;5.95;;;;;;;20.03;100.00;98475.56;2601824;28;20069;-84
2023/08/14 00:20:11;;;;;;;9.35;5.80;;;;;;;20.07;100.00;98484.19;2602317;28;20041;-84
2023/08/14 00:21:26;;;;;;;8.68;6.80;;;;;;;20.08;100.00;98477.94;2601936;28;20453;-84
2023/08/14 00:22:42;;;;;;;7.43;5.90;;;;;;;19.99;100.00;98474.06;2602104;28;20485;-84
2023/08/14 00:23:58;;;;;;;8.57;5.70;;;;;;;20.08;100.00;98479.75;2601775;28;20490;-84
2023/08/14 00:25:13;;;;;;;6.45;5.47;;;;;;;20.19;100.00;98474.56;2601980;28;20052;-83
2023/08/14 00:26:29;;;;;;;7.50;6.10;;;;;;;20.06;100.00;98469.22;2602105;28;20049;-84
2023/08/14 00:27:44;;;;;;;7.25;5.18;;;;;;;20.14;100.00;98474.88;2601899;28;20120;-84
2023/08/14 00:29:00;;;;;;;6.85;5.57;;;;;;;20.19;100.00;98474.56;2602210;28;20049;-84
2023/08/14 00:30:15;;;;;;;8.40;5.60;;;;;;;20.19;100.00;98469.25;2602082;28;20433;-84
2023/08/14 00:31:31;;;;;;;6.90;5.40;;;;;;;20.31;100.00;98475.53;2601370;28;20249;-84
2023/08/14 00:32:47;;;;;;;7.22;5.85;;;;;;;20.32;100.00;98467.47;2601244;28;20088;-84
2023/08/14 00:34:02;;;;;;;8.55;5.93;;;;;;;20.33;100.00;98478.94;2601999;28;20048;-84
2023/08/14 00:35:18;;;;;;;8.07;5.47;;;;;;;20.26;100.00;98475.84;2602048;28;20045;-84
2023/08/14 00:36:33;;;;;;;9.38;5.85;;;;;;;20.26;100.00;98478.50;2601881;28;20096;-84
2023/08/14 00:37:49;;;;;;;10.25;5.05;;;;;;;20.24;100.00;98472.44;2602024;28;20069;-84
2023/08/14 00:39:05;;;;;;;7.85;5.30;;;;;;;20.04;100.00;98477.31;2602091;28;20045;-84
2023/08/14 00:40:21;;;;;;;7.43;4.90;;;;;;;19.94;100.00;98473.53;2601899;28;20073;-84
2023/08/14 00:41:37;;;;;;;8.20;5.45;;;;;;;20.03;100.00;98472.06;2602039;28;20091;-84
2023/08/14 00:42:53;;;;;;;7.18;5.75;;;;;;;20.06;100.00;98481.66;2601765;28;20489;-84
2023/08/14 00:44:08;;;;;;;7.93;5.22;;;;;;;20.01;100.00;98474.00;2601933;28;20045;-84
2023/08/14 00:45:24;;;;;;;6.85;5.65;;;;;;;20.03;100.00;98483.53;2602051;28;20042;-84
2023/08/14 00:46:39;;;;;;;7.35;5.75;;;;;;;19.96;100.00;98479.59;2601853;28;20037;-84
2023/08/14 00:47:56;;;;;;;6.95;5.07;;;;;;;19.86;100.00;98486.44;2601729;28;20666;-84
2023/08/14 00:49:12;;;;;;;5.93;4.55;;;;;;;19.90;100.00;98482.63;2601844;28;20092;-84
2023/08/14 00:50:28;;;;;;;7.40;5.47;;;;;;;19.94;100.00;98480.66;2601956;28;20075;-84
2023/08/14 00:51:43;;;;;;;7.85;5.35;;;;;;;19.95;100.00;98483.22;2601978;28;20798;-84
2023/08/14 00:53:02;;;;;;;8.63;5.05;;;;;;;19.67;100.00;98477.03;2601907;28;20106;-84
2023/08/14 00:54:18;;;;;;;7.40;5.97;;;;;;;19.80;100.00;98481.53;2601923;28;20378;-84
2023/08/14 00:55:34;;;;;;;8.60;5.85;;;;;;;19.79;100.00;98480.69;2601917;28;20045;-84
2023/08/14 00:56:49;;;;;;;7.03;5.85;;;;;;;19.83;100.00;98479.50;2601844;28;20051;-84
2023/08/14 00:58:05;;;;;;;8.18;5.72;;;;;;;19.90;100.00;98488.81;2601839;28;20041;-84
2023/08/14 00:59:21;;;;;;;7.80;5.78;;;;;;;19.89;100.00;98487.09;2601242;28;20505;-84
2023/08/14 01:00:37;;;;;;;8.00;5.40;;;;;;;19.80;100.00;98487.69;2601440;28;20397;-84
2023/08/14 01:01:52;;;;;;;8.32;6.15;;;;;;;19.62;100.00;98492.38;2602610;28;20061;-84
2023/08/14 01:03:08;;;;;;;8.27;5.78;;;;;;;19.65;100.00;98492.22;2603785;28;20100;-84
2023/08/14 01:04:24;;;;;;;7.85;5.72;;;;;;;19.72;100.00;98487.34;2603745;28;20072;-84
2023/08/14 01:05:39;;;;;;;8.63;5.68;;;;;;;19.78;100.00;98494.91;2603888;28;20048;-84
2023/08/14 01:06:55;;;;;;;7.88;6.05;;;;;;;19.74;100.00;98490.75;2603861;28;20053;-84
2023/08/14 01:08:13;;;;;;;6.93;5.20;;;;;;;19.80;100.00;98498.31;2603743;28;20057;-84
2023/08/14 01:09:28;;;;;;;7.28;5.07;;;;;;;19.82;100.00;98495.56;2603054;28;20053;-84
2023/08/14 01:10:56;;;;;;;6.30;5.13;;;;;;;19.60;100.00;98492.50;2603454;28;20046;-84
2023/08/14 01:12:24;;;;;;;7.57;5.40;;;;;;;19.25;100.00;98489.44;2603961;28;20054;-84
2023/08/14 01:13:56;;;;;;;7.70;5.88;;;;;;;19.32;100.00;98488.97;2603873;28;20410;-84
2023/08/14 01:15:30;;;;;;;7.10;5.80;;;;;;;19.29;100.00;98483.84;2603777;28;20095;-84
2023/08/14 01:16:51;;;;;;;10.90;7.00;;;;;;;19.33;100.00;98495.97;2603769;28;20409;-84
2023/08/14 01:18:09;;;;;;;8.57;6.67;;;;;;;19.33;100.00;98485.34;2603655;28;20045;-84
2023/08/14 01:19:31;;;;;;;11.32;7.15;;;;;;;19.44;100.00;98492.63;2603862;28;20966;-84
2023/08/14 01:21:05;;;;;;;11.90;7.07;;;;;;;19.36;100.00;98491.41;2603721;28;20049;-84
2023/08/14 01:22:47;;;;;;;8.15;5.85;;;;;;;19.15;100.00;98489.19;2603731;28;20080;-84
2023/08/14 01:24:09;;;;;;;8.90;6.27;;;;;;;19.13;100.00;98491.06;2603554;28;20045;-84
2023/08/14 01:25:37;;;;;;;11.23;6.35;;;;;;;19.13;100.00;98493.72;2603641;28;20522;-84
2023/08/14 01:26:53;;;;;;;9.70;6.47;;;;;;;19.44;100.00;98497.94;2603569;28;20128;-84
2023/08/14 01:28:09;;;;;;;9.35;6.22;;;;;;;19.58;100.00;98491.75;2603650;28;20676;-84
2023/08/14 01:29:25;;;;;;;7.95;6.05;;;;;;;19.46;100.00;98488.06;2603742;28;20041;-84
2023/08/14 01:30:40;;;;;;;9.30;5.95;;;;;;;19.34;100.00;98492.38;2603697;28;20053;-84
2023/08/14 01:31:56;;;;;;;12.55;5.57;;;;;;;19.43;100.00;98487.44;2603512;28;20172;-84
2023/08/14 01:33:11;;;;;;;8.48;6.10;;;;;;;19.36;100.00;98488.75;2603563;28;20053;-84
2023/08/14 01:34:27;;;;;;;6.90;6.15;;;;;;;19.41;100.00;98491.97;2603731;28;20056;-84
2023/08/14 01:35:49;;;;;;;8.10;5.97;;;;;;;19.42;100.00;98486.56;2603369;28;20127;-84
2023/08/14 01:37:17;;;;;;;9.40;6.10;;;;;;;19.13;100.00;98488.41;2603613;28;20440;-84
2023/08/14 01:38:45;;;;;;;10.25;5.93;;;;;;;19.41;100.00;98490.19;2603677;28;20053;-84
2023/08/14 01:40:09;;;;;;;8.05;5.80;;;;;;;19.40;100.00;98485.81;2603623;28;20046;-84
2023/08/14 01:41:34;;;;;;;7.95;6.10;;;;;;;19.19;100.00;98486.22;2603492;28;20065;-84
2023/08/14 01:42:57;;;;;;;6.45;5.78;;;;;;;19.40;100.00;98485.81;2603462;28;20050;-84
2023/08/14 01:44:16;;;;;;;8.00;5.95;;;;;;;19.41;100.00;98486.66;2603420;28;20517;-84
2023/08/14 01:45:34;;;;;;;8.02;6.80;;;;;;;19.44;100.00;98486.47;2603523;28;20547;-84
2023/08/14 01:46:52;;;;;;;9.85;6.55;;;;;;;19.27;100.00;98496.34;2603602;28;20077;-84
2023/08/14 01:48:09;;;;;;;10.10;6.15;;;;;;;19.26;100.00;98494.63;2603454;28;20057;-84
2023/08/14 01:49:30;;;;;;;8.60;6.05;;;;;;;19.43;100.00;98490.94;2605264;28;20049;-84
2023/08/14 01:50:47;;;;;;;10.13;6.45;;;;;;;19.54;100.00;98497.34;2613736;28;20560;-84
2023/08/14 01:52:04;;;;;;;8.07;5.88;;;;;;;19.67;100.00;98497.41;2613586;28;20045;-84
2023/08/14 01:53:19;;;;;;;12.90;7.68;;;;;;;19.69;100.00;98496.38;2613643;28;20045;-84
2023/08/14 01:54:35;;;;;;;13.50;7.40;;;;;;;19.77;100.00;98498.53;2613796;28;20493;-84
2023/08/14 01:55:51;;;;;;;14.40;7.00;;;;;;;19.79;100.00;98498.44;2602856;28;20073;-84
2023/08/14 01:57:06;;;;;;;9.32;5.97;;;;;;;19.80;100.00;98498.31;2606938;28;20048;-84
2023/08/14 01:58:22;;;;;;;8.30;6.18;;;;;;;19.79;100.00;98496.63;2613826;28;20088;-84
2023/08/14 01:59:46;;;;;;;9.70;6.35;;;;;;;19.67;100.00;98503.59;2613753;28;20075;-84
2023/08/14 02:01:02;;;;;;;9.50;6.05;;;;;;;19.44;100.00;98497.94;2613641;28;20069;-84
2023/08/14 02:02:18;;;;;;;10.55;6.47;;;;;;;19.36;100.00;98494.94;2613444;28;20106;-84
2023/08/14 02:03:33;;;;;;;10.10;6.43;;;;;;;19.28;100.00;98498.06;2613648;28;20045;-84
2023/08/14 02:04:49;;;;;;;12.43;7.13;;;;;;;19.34;100.00;98499.47;2613551;28;20037;-84
2023/08/14 02:06:04;;;;;;;11.52;7.38;;;;;;;19.55;100.00;98491.09;2613639;28;20120;-84
2023/08/14 02:07:22;;;;;;;12.52;7.72;;;;;;;19.54;100.00;98500.84;2602576;28;20053;-85
2023/08/14 02:08:37;;;;;;;12.30;7.90;;;;;;;19.34;100.00;98500.34;2606843;28;20037;-84
2023/08/14 02:09:53;;;;;;;14.23;7.88;;;;;;;19.29;100.00;98496.25;2603201;28;20164;-84
2023/08/14 02:11:09;;;;;;;10.95;7.25;;;;;;;19.31;100.00;98494.34;2603021;28;20057;-84
2023/08/14 02:12:25;;;;;;;9.73;7.50;;;;;;;19.30;100.00;98496.19;2603174;28;20070;-84
2023/08/14 02:13:40;;;;;;;10.63;7.57;;;;;;;19.11;100.00;98495.59;2602287;28;20062;-84
2023/08/14 02:14:57;;;;;;;10.98;7.55;;;;;;;19.02;100.00;98500.56;2603089;28;20460;-84
2023/08/14 02:16:12;;;;;;;12.05;7.20;;;;;;;18.79;100.00;98486.03;2602358;28;20104;-84
2023/08/14 02:17:28;;;;;;;10.68;6.68;;;;;;;18.76;100.00;98491.50;2602838;28;20092;-84
2023/08/14 02:18:43;;;;;;;10.75;6.80;;;;;;;18.77;100.00;98478.16;2603157;28;20049;-84
2023/08/14 02:19:59;;;;;;;11.80;7.10;;;;;;;18.82;100.00;98479.66;2603039;28;20045;-84
2023/08/14 02:21:16;;;;;;;10.73;6.78;;;;;;;18.91;100.00;98474.63;2603291;28;20045;-84
2023/08/14 02:22:31;;;;;;;12.32;8.18;;;;;;;19.18;100.00;98470.41;2603203;28;20052;-84
2023/08/14 02:23:47;;;;;;;11.43;7.75;;;;;;;19.39;100.00;98469.97;2603149;28;20046;-84
2023/08/14 02:25:03;;;;;;;12.77;7.85;;;;;;;19.46;100.00;98469.47;2603049;28;20108;-84
2023/08/14 02:26:18;;;;;;;12.30;7.35;;;;;;;19.50;100.00;98467.50;2603271;28;20092;-84
2023/08/14 02:27:34;;;;;;;20.52;7.47;;;;;;;19.47;100.00;98480.97;2603130;28;20472;-84
2023/08/14 02:28:49;;;;;;;10.32;7.60;;;;;;;19.57;100.00;98476.78;2603210;28;20042;-85
2023/08/14 02:30:06;;;;;;;9.98;6.78;;;;;;;19.55;100.00;98470.69;2603152;28;20169;-84
2023/08/14 02:31:21;;;;;;;11.93;6.65;;;;;;;19.42;100.00;98467.16;2603104;28;20416;-84
2023/08/14 02:32:37;;;;;;;9.85;6.75;;;;;;;19.49;100.00;98463.13;2602975;28;20108;-84
2023/08/14 02:34:00;;;;;;;11.57;7.47;;;;;;;19.38;100.00;98469.13;2603101;28;20418;-84
2023/08/14 02:35:16;;;;;;;11.73;6.93;;;;;;;19.35;100.00;98464.03;2602992;28;20072;-84
2023/08/14 02:36:31;;;;;;;9.88;7.07;;;;;;;19.32;100.00;98467.72;2603216;28;20477;-84
2023/08/14 02:37:47;;;;;;;11.85;7.25;;;;;;;19.22;100.00;98463.94;2602815;28;20042;-84
2023/08/14 02:39:02;;;;;;;11.02;7.15;;;;;;;19.34;100.00;98464.97;2602589;28;20046;-84
2023/08/14 02:40:18;;;;;;;15.43;7.47;;;;;;;19.40;100.00;98467.22;2602987;28;20041;-84
2023/08/14 02:41:33;;;;;;;68.22;8.82;;;;;;;19.37;100.00;98466.56;2603029;28;20052;-84
2023/08/14 02:42:49;;;;;;;115.38;11.50;;;;;;;19.37;100.00;98474.53;2609175;28;20049;-84
2023/08/14 02:44:05;;;;;;;172.82;10.43;;;;;;;19.36;100.00;98473.69;2602033;28;20052;-84
2023/08/14 02:45:20;;;;;;;133.00;10.07;;;;;;;19.25;100.00;98476.19;2606479;28;20354;-84
2023/08/14 02:46:36;;;;;;;182.35;12.48;;;;;;;19.31;100.00;98475.78;2613211;28;20465;-84
2023/08/14 02:47:51;;;;;;;166.25;11.05;;;;;;;19.32;100.00;98483.66;2613270;28;20064;-84
2023/08/14 02:49:07;;;;;;;78.20;8.20;;;;;;;19.26;100.00;98476.06;2613170;28;20076;-84
2023/08/14 02:50:22;;;;;;;114.95;10.38;;;;;;;19.29;100.00;98481.19;2613107;28;20049;-84
2023/08/14 02:51:38;;;;;;;114.32;12.38;;;;;;;19.55;100.00;98486.63;2613213;28;20098;-84
2023/08/14 02:52:53;;;;;;;94.00;9.63;;;;;;;19.62;100.00;98487.06;2613342;28;20049;-84
2023/08/14 02:54:09;;;;;;;93.53;10.02;;;;;;;19.56;100.00;98488.34;2613158;28;20052;-85
2023/08/14 02:55:25;;;;;;;111.15;11.38;;;;;;;19.57;100.00;98489.19;2613148;28;20052;-85
2023/08/14 02:56:41;;;;;;;85.47;10.32;;;;;;;19.46;100.00;98484.56;2613097;28;20133;-84
2023/08/14 02:57:57;;;;;;;39.50;8.63;;;;;;;19.29;100.00;98480.34;2613220;28;20075;-84
2023/08/14 02:59:13;;;;;;;71.13;10.95;;;;;;;19.42;100.00;98480.44;2613137;28;20077;-84
2023/08/14 03:00:28;;;;;;;17.38;8.48;;;;;;;19.31;100.00;98476.66;2608631;28;20045;-84
2023/08/14 03:01:43;;;;;;;32.28;9.02;;;;;;;19.44;100.00;98483.81;2602468;28;20050;-85
2023/08/14 03:02:59;;;;;;;82.40;9.68;;;;;;;19.45;100.00;98486.38;2602686;28;20701;-84
2023/08/14 03:04:18;;;;;;;18.13;7.68;;;;;;;19.32;100.00;98486.31;2602630;28;20456;-84
2023/08/14 03:05:33;;;;;;;28.48;8.43;;;;;;;19.36;100.00;98488.75;2602765;28;20513;-84
2023/08/14 03:06:49;;;;;;;29.23;8.20;;;;;;;19.15;100.00;98489.19;2602340;28;20068;-84
2023/08/14 03:08:04;;;;;;;76.78;9.30;;;;;;;19.29;100.00;98488.31;2601719;28;20045;-85
2023/08/14 03:09:20;;;;;;;127.88;10.40;;;;;;;19.27;100.00;98490.19;2602300;28;20555;-85
2023/08/14 03:10:35;;;;;;;45.00;7.97;;;;;;;19.09;100.00;98487.75;2602665;28;20037;-84
2023/08/14 03:11:51;;;;;;;20.40;7.55;;;;;;;19.02;100.00;98483.78;2602504;28;20417;-85
2023/08/14 03:13:07;;;;;;;15.55;7.28;;;;;;;18.92;100.00;98486.13;2602487;28;20517;-84
2023/08/14 03:14:23;;;;;;;11.90;7.25;;;;;;;19.05;100.00;98481.78;2602588;28;20512;-84
2023/08/14 03:15:38;;;;;;;15.90;7.78;;;;;;;19.25;100.00;98481.50;2602485;28;20108;-84
2023/08/14 03:16:54;;;;;;;12.00;7.80;;;;;;;19.32;100.00;98477.47;2602523;28;20046;-85
2023/08/14 03:18:09;;;;;;;9.15;6.68;;;;;;;19.39;100.00;98478.81;2602616;28;20041;-84
2023/08/14 03:19:25;;;;;;;10.23;6.93;;;;;;;19.38;100.00;98478.91;2602585;28;20049;-84
2023/08/14 03:20:40;;;;;;;9.75;7.40;;;;;;;19.29;100.00;98470.59;2602727;28;20056;-84
2023/08/14 03:21:56;;;;;;;10.63;7.50;;;;;;;19.44;100.00;98471.38;2602602;28;20045;-84
2023/08/14 03:23:11;;;;;;;14.48;7.75;;;;;;;19.29;100.00;98478.53;2602462;28;20049;-85
2023/08/14 03:24:27;;;;;;;17.58;8.00;;;;;;;19.31;100.00;98475.78;2591346;28;20066;-84
2023/08/14 03:25:42;;;;;;;21.55;7.85;;;;;;;19.30;100.00;98476.72;2596096;28;20049;-84
2023/08/14 03:26:58;;;;;;;28.80;8.75;;;;;;;19.27;100.00;98476.94;2602587;28;20045;-84
2023/08/14 03:28:13;;;;;;;15.55;7.68;;;;;;;19.08;100.00;98482.53;2602512;28;20053;-84
2023/08/14 03:29:29;;;;;;;10.38;7.13;;;;;;;19.12;100.00;98486.69;2591617;28;20132;-84
2023/08/14 03:30:44;;;;;;;13.43;7.40;;;;;;;19.20;100.00;98484.44;2598350;28;20041;-84
2023/08/14 03:32:00;;;;;;;9.20;7.03;;;;;;;19.24;100.00;98475.31;2602085;28;20050;-84
2023/08/14 03:33:16;;;;;;;10.07;7.35;;;;;;;19.33;100.00;98485.34;2602168;28;20089;-84
2023/08/14 03:34:31;;;;;;;12.23;6.85;;;;;;;19.30;100.00;98485.56;2602592;28;20068;-84
2023/08/14 03:35:47;;;;;;;10.13;6.97;;;;;;;19.28;100.00;98492.78;2602411;28;20053;-84
2023/08/14 03:37:02;;;;;;;10.77;7.47;;;;;;;19.39;100.00;98488.56;2602396;28;20053;-84
2023/08/14 03:38:18;;;;;;;8.90;7.13;;;;;;;19.38;100.00;98494.81;2602403;28;20050;-84
2023/08/14 03:39:33;;;;;;;13.45;6.38;;;;;;;19.26;100.00;98493.81;2602419;28;20068;-84
2023/08/14 03:40:49;;;;;;;9.75;6.90;;;;;;;19.22;100.00;98497.63;2602443;28;20500;-85
2023/08/14 03:42:04;;;;;;;9.20;6.93;;;;;;;19.24;100.00;98498.38;2602475;28;20041;-85
2023/08/14 03:43:20;;;;;;;14.52;6.75;;;;;;;19.20;100.00;98493.22;2602099;28;20100;-84
2023/08/14 03:44:35;;;;;;;28.17;7.40;;;;;;;19.20;100.00;98495.03;2602360;28;20382;-84
2023/08/14 03:45:51;;;;;;;168.23;10.82;;;;;;;19.22;100.00;98492.31;2602110;28;20065;-84
2023/08/14 03:47:07;;;;;;;40.15;7.30;;;;;;;19.29;100.00;98504.22;2602485;28;20049;-84
2023/08/14 03:48:22;;;;;;;159.93;11.88;;;;;;;19.33;100.00;98495.97;2602200;28;20132;-84
2023/08/14 03:49:38;;;;;;;129.93;10.88;;;;;;;19.34;100.00;98487.06;2602253;28;20581;-84
2023/08/14 03:50:53;;;;;;;112.70;10.13;;;;;;;19.31;100.00;98481.94;2602512;28;20054;-84
2023/08/14 03:52:09;;;;;;;121.30;10.13;;;;;;;19.27;100.00;98488.38;2602199;28;20045;-84
2023/08/14 03:53:25;;;;;;;140.05;9.63;;;;;;;19.38;100.00;98492.16;2601817;28;20118;-84
2023/08/14 03:54:40;;;;;;;119.30;9.82;;;;;;;19.33;100.00;98489.81;2602338;28;20544;-84
2023/08/14 03:55:56;;;;;;;192.88;11.40;;;;;;;19.24;100.00;98491.25;2602193;28;20041;-84
2023/08/14 03:57:11;;;;;;;261.13;15.20;;;;;;;19.19;100.00;98493.34;2602116;28;20541;-84
2023/08/14 03:58:27;;;;;;;100.97;7.38;;;;;;;19.11;100.00;98498.25;2602134;28;20674;-83
2023/08/14 03:59:42;;;;;;;202.25;10.50;;;;;;;19.10;100.00;98499.22;2602363;28;20053;-84
2023/08/14 04:00:58;;;;;;;173.88;11.98;;;;;;;19.25;100.00;98494.75;2602388;28;20054;-84
2023/08/14 04:02:13;;;;;;;238.05;13.20;;;;;;;19.30;100.00;98501.50;2607977;28;20060;-84
2023/08/14 04:03:29;;;;;;;248.93;13.18;;;;;;;19.31;100.00;98500.53;2612490;28;20048;-84
2023/08/14 04:04:45;;;;;;;307.83;16.50;;;;;;;19.30;100.00;98505.94;2612444;28;20040;-84
2023/08/14 04:06:00;;;;;;;119.35;9.07;;;;;;;19.37;100.00;98511.69;2612550;28;20052;-84
2023/08/14 04:07:16;;;;;;;18.50;7.45;;;;;;;19.43;100.00;98506.03;2612545;28;20048;-85
2023/08/14 04:08:31;;;;;;;58.20;7.28;;;;;;;19.38;100.00;98508.97;2612475;28;20049;-84
2023/08/14 04:09:47;;;;;;;12.70;6.85;;;;;;;19.39;100.00;98500.03;2612565;28;20041;-85
2023/08/14 04:11:04;;;;;;;28.83;7.28;;;;;;;19.39;100.00;98499.19;2611416;28;20045;-84
2023/08/14 04:12:20;;;;;;;38.38;7.25;;;;;;;19.41;100.00;98497.28;2612069;28;20037;-84
2023/08/14 04:13:35;;;;;;;12.95;6.60;;;;;;;19.30;100.00;98501.50;2612068;28;20124;-86
2023/08/14 04:14:51;;;;;;;31.92;8.15;;;;;;;19.26;100.00;98499.94;2612452;28;20048;-84
2023/08/14 04:16:06;;;;;;;22.38;7.63;;;;;;;19.25;100.00;98492.94;2612615;28;20056;-84
2023/08/14 04:17:22;;;;;;;26.58;7.53;;;;;;;19.25;100.00;98495.59;2612472;28;20057;-84
2023/08/14 04:18:38;;;;;;;131.07;11.38;;;;;;;19.36;100.00;98497.59;2612400;28;20136;-85
2023/08/14 04:19:53;;;;;;;121.00;9.55;;;;;;;19.35;100.00;98498.53;2601320;28;20049;-85
2023/08/14 04:21:09;;;;;;;149.82;12.07;;;;;;;19.39;100.00;98496.53;2605807;28;20037;-85
2023/08/14 04:22:24;;;;;;;108.80;10.23;;;;;;;19.46;100.00;98496.03;2611725;28;20075;-85
2023/08/14 04:23:40;;;;;;;61.65;7.53;;;;;;;19.40;100.00;98506.19;2612083;28;20041;-84
2023/08/14 04:24:55;;;;;;;36.03;7.35;;;;;;;19.36;100.00;98502.91;2611965;28;20056;-84
2023/08/14 04:26:11;;;;;;;45.28;7.47;;;;;;;19.45;100.00;98506.78;2612478;28;20501;-85
2023/08/14 04:27:26;;;;;;;13.13;6.57;;;;;;;19.42;100.00;98504.31;2612060;28;20067;-84
2023/08/14 04:28:42;;;;;;;14.40;6.50;;;;;;;19.43;100.00;98500.72;2612273;28;20049;-85
2023/08/14 04:29:57;;;;;;;11.52;7.05;;;;;;;19.49;100.00;98505.63;2612263;28;20485;-85
2023/08/14 04:31:13;;;;;;;13.68;6.32;;;;;;;19.47;100.00;98508.34;2612207;28;20048;-84
2023/08/14 04:32:28;;;;;;;8.85;6.13;;;;;;;19.45;100.00;98514.72;2612096;28;20037;-85
2023/08/14 04:33:44;;;;;;;9.70;6.35;;;;;;;19.51;100.00;98503.72;2612149;28;20116;-84
2023/08/14 04:34:59;;;;;;;18.30;6.70;;;;;;;19.38;100.00;98498.34;2612252;28;20067;-84
2023/08/14 04:36:15;;;;;;;23.63;6.55;;;;;;;19.40;100.00;98507.06;2612402;28;20404;-85
2023/08/14 04:37:30;;;;;;;21.65;7.05;;;;;;;19.40;100.00;98506.19;2614115;28;20053;-84
2023/08/14 04:38:46;;;;;;;63.25;8.77;;;;;;;19.36;100.00;98504.69;2614376;28;20045;-85
2023/08/14 04:40:04;;;;;;;94.63;9.25;;;;;;;19.30;100.00;98505.94;2614323;28;20529;-84
2023/08/14 04:41:20;;;;;;;24.13;6.63;;;;;;;19.35;100.00;98501.19;2614382;28;20041;-84
2023/08/14 04:42:35;;;;;;;37.65;7.30;;;;;;;19.46;100.00;98497.84;2614148;28;20511;-84
2023/08/14 04:43:51;;;;;;;18.40;6.90;;;;;;;19.48;100.00;98499.44;2614395;28;20048;-84
2023/08/14 04:45:07;;;;;;;8.75;6.38;;;;;;;19.50;100.00;98490.56;2614295;28;20087;-84
2023/08/14 04:46:32;;;;;;;8.52;6.63;;;;;;;19.61;100.00;98490.69;2603206;28;20463;-84
2023/08/14 04:47:48;;;;;;;8.70;6.43;;;;;;;19.44;100.00;98497.94;2608900;28;20496;-84
2023/08/14 04:49:04;;;;;;;11.38;6.97;;;;;;;19.36;100.00;98488.75;2614178;28;20041;-84
2023/08/14 04:50:20;;;;;;;9.52;6.95;;;;;;;19.30;100.00;98480.25;2613988;28;20207;-84
2023/08/14 04:51:35;;;;;;;11.90;7.65;;;;;;;19.18;100.00;98486.31;2614450;28;20144;-84
2023/08/14 04:52:51;;;;;;;11.55;7.40;;;;;;;19.45;100.00;98488.19;2614308;28;20041;-84
2023/08/14 04:54:07;;;;;;;17.77;7.95;;;;;;;19.53;100.00;98485.88;2602763;28;20045;-84
2023/08/14 04:55:23;;;;;;;11.70;7.28;;;;;;;19.57;100.00;98482.09;2607727;28;20049;-84
2023/08/14 04:56:39;;;;;;;10.57;7.25;;;;;;;19.60;100.00;98486.31;2614427;28;20063;-84
2023/08/14 04:57:54;;;;;;;11.20;7.43;;;;;;;19.42;100.00;98483.06;2614106;28;20049;-84
2023/08/14 04:59:10;;;;;;;11.52;7.47;;;;;;;19.48;100.00;98488.81;2614063;28;20501;-84
2023/08/14 05:00:26;;;;;;;9.93;7.55;;;;;;;19.77;100.00;98493.22;2614399;28;20045;-84
2023/08/14 05:01:41;;;;;;;9.15;6.70;;;;;;;19.61;100.00;98488.03;2614127;28;20049;-84
2023/08/14 05:02:57;;;;;;;8.57;6.28;;;;;;;19.65;100.00;98488.69;2613872;28;20404;-84
2023/08/14 05:04:12;;;;;;;7.80;6.40;;;;;;;19.91;100.00;98487.00;2614159;28;20179;-84
2023/08/14 05:05:28;;;;;;;8.45;6.47;;;;;;;20.07;100.00;98486.84;2614301;28;20053;-83
2023/08/14 05:06:44;;;;;;;8.13;6.47;;;;;;;20.12;100.00;98492.72;2613782;28;20459;-84
2023/08/14 05:08:00;;;;;;;7.03;5.75;;;;;;;20.07;100.00;98491.34;2614069;28;20179;-85
2023/08/14 05:09:15;;;;;;;6.80;5.57;;;;;;;20.15;100.00;98484.56;2613803;28;20081;-84
2023/08/14 05:10:32;;;;;;;5.85;4.97;;;;;;;20.27;100.00;98487.34;2614216;28;20048;-83
2023/08/14 05:11:48;;;;;;;5.90;5.32;;;;;;;20.29;100.00;98486.25;2614152;28;20462;-83
2023/08/14 05:13:03;;;;;;;8.70;5.85;;;;;;;20.39;100.00;98481.16;2613870;28;20049;-83
2023/08/14 05:14:19;;;;;;;10.25;5.80;;;;;;;20.44;100.00;98484.38;2613936;28;20091;-84
2023/08/14 05:15:37;;;;;;;8.35;6.00;;;;;;;20.15;100.00;98481.88;2614229;28;20045;-83
2023/08/14 05:16:53;;;;;;;6.38;5.45;;;;;;;20.12;100.00;98481.22;2614036;28;20049;-83
2023/08/14 05:18:08;;;;;;;10.40;5.60;;;;;;;20.06;100.00;98490.47;2613670;28;20088;-83
2023/08/14 05:19:24;;;;;;;7.13;5.50;;;;;;;20.19;100.00;98485.19;2614098;28;20053;-83
2023/08/14 05:20:43;;;;;;;7.72;5.90;;;;;;;20.04;100.00;98492.38;2614107;28;20037;-83
2023/08/14 05:21:59;;;;;;;9.30;6.03;;;;;;;19.95;100.00;98485.00;2614014;28;20045;-83
2023/08/14 05:23:15;;;;;;;7.28;5.07;;;;;;;19.99;100.00;98489.19;2613702;28;20048;-83
2023/08/14 05:24:31;;;;;;;9.15;5.30;;;;;;;19.93;100.00;98484.25;2613925;28;20044;-84
2023/08/14 05:25:46;;;;;;;13.18;5.68;;;;;;;19.85;100.00;98480.28;2614115;28;20041;-83
2023/08/14 05:27:02;;;;;;;6.72;5.60;;;;;;;20.17;100.00;98485.28;2613837;28;20445;-84
2023/08/14 05:28:18;;;;;;;7.63;5.28;;;;;;;20.21;100.00;98485.06;2613830;28;20084;-84
2023/08/14 05:29:33;;;;;;;11.38;6.13;;;;;;;20.13;100.00;98482.94;2613827;28;20067;-83
2023/08/14 05:30:49;;;;;;;9.75;6.15;;;;;;;20.16;100.00;98483.59;2613854;28;20052;-84
2023/08/14 05:32:05;;;;;;;20.85;5.90;;;;;;;19.99;100.00;98483.88;2613583;28;20094;-84
2023/08/14 05:33:21;;;;;;;20.60;7.00;;;;;;;20.19;100.00;98487.84;2613561;28;20087;-84
2023/08/14 05:34:36;;;;;;;8.40;6.80;;;;;;;20.40;100.00;98484.69;2613995;28;20049;-84
2023/08/14 05:35:52;;;;;;;8.05;6.25;;;;;;;20.49;100.00;98491.19;2614043;28;20041;-84
2023/08/14 05:37:07;;;;;;;11.30;6.38;;;;;;;20.60;100.00;98491.31;2613935;28;20049;-83
2023/08/14 05:38:23;;;;;;;41.85;8.68;;;;;;;20.63;100.00;98493.75;2613662;28;20053;-84
2023/08/14 05:39:39;;;;;;;14.57;7.50;;;;;;;20.63;100.00;98496.41;2613786;28;20041;-84
2023/08/14 05:40:54;;;;;;;38.78;8.45;;;;;;;20.71;100.00;98494.09;2613884;28;20120;-84
2023/08/14 05:42:10;;;;;;;22.90;8.18;;;;;;;20.67;100.00;98484.59;2613703;28;20045;-84
2023/08/14 05:43:26;;;;;;;10.50;7.20;;;;;;;20.77;100.00;98487.50;2613517;28;20037;-83
2023/08/14 05:44:41;;;;;;;10.80;7.40;;;;;;;20.63;100.00;98492.91;2613679;28;20131;-84
2023/08/14 05:45:57;;;;;;;10.43;8.48;;;;;;;20.74;100.00;98483.22;2613772;28;20092;-84
2023/08/14 05:47:12;;;;;;;11.82;8.10;;;;;;;20.72;100.00;98479.81;2613786;28;20053;-84
2023/08/14 05:48:28;;;;;;;10.20;7.28;;;;;;;20.92;100.00;98480.25;2613497;28;20173;-85
2023/08/14 05:49:44;;;;;;;9.55;6.70;;;;;;;21.04;100.00;98478.56;2613322;28;20051;-83
2023/08/14 05:50:59;;;;;;;7.60;6.40;;;;;;;20.94;100.00;98478.34;2613602;28;20044;-84
2023/08/14 05:52:15;;;;;;;8.27;6.57;;;;;;;20.89;100.00;98477.81;2613217;28;20083;-83
2023/08/14 05:53:30;;;;;;;10.88;7.25;;;;;;;20.82;100.00;98481.88;2613027;28;20493;-83